TVF39LV LFLL-LGSR
Flight info
| Callsign | TVF39LV |
|---|---|
| Flight time | N/A |
| Altitude | 22000 |
| Route | RISOR T47 GEMLA/N0414F230 DCT VANAS DCT MEDAM DCT NITAM DCT MOGBO/N0454F370 DCT GIKIN DCT MOLUX DCT LATAN DCT TRL UM601 PEXAN |
| Aircraft | B738/M-SDE2E3FGHIRWXY/LB1 |
Departure
| Time | 2026-05-01 14:41 |
|---|---|
| Airport | Lyon Saint-Exupéry Airport (LFLL) |
Arrival
| Time | N/A |
|---|---|
| Airport | Santorini International Airport (LGSR) |
| Time | Latitude | Longitude | Altitude | Speed | Heading |
|---|---|---|---|---|---|
| 2026-05-01 14:15 | 45.71502 | 5.08232 | 801 ft | 0 kts | 15° |
| 2026-05-01 14:31 | 45.71499 | 5.08231 | 801 ft | 3 kts | 15° |
| 2026-05-01 14:31 | 45.71474 | 5.08219 | 801 ft | 4 kts | 23° |
| 2026-05-01 14:31 | 45.71450 | 5.08201 | 801 ft | 4 kts | 38° |
| 2026-05-01 14:32 | 45.71434 | 5.08175 | 801 ft | 4 kts | 82° |
| 2026-05-01 14:32 | 45.71433 | 5.08162 | 801 ft | 1 kts | 104° |
| 2026-05-01 14:35 | 45.71431 | 5.08176 | 801 ft | 4 kts | 104° |
| 2026-05-01 14:35 | 45.71413 | 5.08275 | 802 ft | 15 kts | 104° |
| 2026-05-01 14:35 | 45.71414 | 5.08426 | 805 ft | 15 kts | 84° |
| 2026-05-01 14:36 | 45.71472 | 5.08521 | 805 ft | 15 kts | 359° |
| 2026-05-01 14:36 | 45.71584 | 5.08507 | 802 ft | 16 kts | 355° |
| 2026-05-01 14:36 | 45.71705 | 5.08492 | 801 ft | 21 kts | 355° |
| 2026-05-01 14:36 | 45.71884 | 5.08470 | 801 ft | 29 kts | 355° |
| 2026-05-01 14:37 | 45.72085 | 5.08447 | 802 ft | 28 kts | 354° |
| 2026-05-01 14:37 | 45.72274 | 5.08422 | 798 ft | 26 kts | 355° |
| 2026-05-01 14:37 | 45.72451 | 5.08402 | 796 ft | 25 kts | 355° |
| 2026-05-01 14:37 | 45.72618 | 5.08381 | 792 ft | 25 kts | 355° |
| 2026-05-01 14:38 | 45.72801 | 5.08359 | 790 ft | 28 kts | 355° |
| 2026-05-01 14:38 | 45.72991 | 5.08336 | 787 ft | 27 kts | 355° |
| 2026-05-01 14:38 | 45.73168 | 5.08314 | 784 ft | 25 kts | 355° |
| 2026-05-01 14:38 | 45.73336 | 5.08294 | 781 ft | 25 kts | 355° |
| 2026-05-01 14:39 | 45.73512 | 5.08273 | 779 ft | 25 kts | 355° |
| 2026-05-01 14:39 | 45.73668 | 5.08264 | 777 ft | 21 kts | 14° |
| 2026-05-01 14:39 | 45.73722 | 5.08435 | 776 ft | 22 kts | 104° |
| 2026-05-01 14:39 | 45.73686 | 5.08651 | 776 ft | 18 kts | 102° |
| 2026-05-01 14:40 | 45.73635 | 5.08726 | 777 ft | 12 kts | 178° |
| 2026-05-01 14:40 | 45.73485 | 5.08740 | 781 ft | 46 kts | 175° |
| 2026-05-01 14:40 | 45.72930 | 5.08807 | 792 ft | 112 kts | 175° |
| 2026-05-01 14:40 | 45.71977 | 5.08915 | 891 ft | 155 kts | 177° |
| 2026-05-01 14:41 | 45.70884 | 5.09030 | 1576 ft | 156 kts | 176° |
| 2026-05-01 14:41 | 45.69791 | 5.09157 | 2320 ft | 161 kts | 176° |
| 2026-05-01 14:41 | 45.68631 | 5.09288 | 2852 ft | 178 kts | 175° |
| 2026-05-01 14:41 | 45.67287 | 5.09448 | 3145 ft | 206 kts | 176° |
| 2026-05-01 14:42 | 45.65777 | 5.09635 | 3401 ft | 227 kts | 176° |
| 2026-05-01 14:42 | 45.64170 | 5.09842 | 3936 ft | 237 kts | 176° |
| 2026-05-01 14:42 | 45.62522 | 5.10068 | 4756 ft | 240 kts | 173° |
| 2026-05-01 14:42 | 45.60860 | 5.10811 | 5225 ft | 260 kts | 152° |
| 2026-05-01 14:43 | 45.59421 | 5.12440 | 5971 ft | 268 kts | 132° |
| 2026-05-01 14:43 | 45.58471 | 5.14758 | 6753 ft | 276 kts | 110° |
| 2026-05-01 14:43 | 45.57973 | 5.17414 | 7563 ft | 278 kts | 105° |
| 2026-05-01 14:43 | 45.57554 | 5.20090 | 8332 ft | 281 kts | 104° |
| 2026-05-01 14:44 | 45.57138 | 5.22824 | 9124 ft | 283 kts | 103° |
| 2026-05-01 14:44 | 45.56277 | 5.28375 | 10583 ft | 291 kts | 105° |
| 2026-05-01 14:44 | 45.55812 | 5.31300 | 10809 ft | 314 kts | 105° |
| 2026-05-01 14:45 | 45.55307 | 5.34439 | 10983 ft | 336 kts | 105° |
| 2026-05-01 14:45 | 45.54214 | 5.41195 | 11932 ft | 355 kts | 104° |
| 2026-05-01 14:45 | 45.53654 | 5.44644 | 12672 ft | 357 kts | 105° |
| 2026-05-01 14:46 | 45.53089 | 5.48111 | 13385 ft | 361 kts | 105° |
| 2026-05-01 14:46 | 45.51943 | 5.55116 | 14207 ft | 365 kts | 105° |
| 2026-05-01 14:46 | 45.51363 | 5.58643 | 14238 ft | 366 kts | 105° |
| 2026-05-01 14:47 | 45.50837 | 5.62214 | 14477 ft | 371 kts | 99° |
| 2026-05-01 14:47 | 45.50903 | 5.65912 | 15177 ft | 376 kts | 84° |
| 2026-05-01 14:47 | 45.51279 | 5.69620 | 15882 ft | 379 kts | 84° |
| 2026-05-01 14:48 | 45.52034 | 5.77127 | 17205 ft | 386 kts | 84° |
| 2026-05-01 14:48 | 45.52401 | 5.80945 | 17833 ft | 391 kts | 84° |
| 2026-05-01 14:48 | 45.53124 | 5.88705 | 19036 ft | 397 kts | 84° |
| 2026-05-01 14:49 | 45.53849 | 5.96585 | 20144 ft | 404 kts | 84° |
| 2026-05-01 14:49 | 45.54584 | 6.04596 | 21209 ft | 411 kts | 84° |
| 2026-05-01 14:50 | 45.55077 | 6.09983 | 21926 ft | 415 kts | 84° |
| 2026-05-01 14:50 | 45.56071 | 6.20985 | 23294 ft | 424 kts | 84° |
| 2026-05-01 14:51 | 45.56444 | 6.25175 | 23788 ft | 428 kts | 84° |
| 2026-05-01 14:51 | 45.56722 | 6.33634 | 24682 ft | 430 kts | 97° |
| 2026-05-01 14:52 | 45.55116 | 6.41886 | 25398 ft | 436 kts | 114° |
| 2026-05-01 14:52 | 45.53939 | 6.45899 | 25742 ft | 439 kts | 113° |
| 2026-05-01 14:52 | 45.51583 | 6.54007 | 26449 ft | 446 kts | 114° |
| 2026-05-01 14:53 | 45.50410 | 6.58127 | 26779 ft | 450 kts | 112° |
| 2026-05-01 14:53 | 45.49235 | 6.62284 | 27145 ft | 452 kts | 112° |
| 2026-05-01 14:53 | 45.48054 | 6.66458 | 27564 ft | 453 kts | 112° |
| 2026-05-01 14:53 | 45.46796 | 6.70578 | 27906 ft | 456 kts | 118° |
| 2026-05-01 14:54 | 45.45047 | 6.74363 | 28173 ft | 459 kts | 130° |
| 2026-05-01 14:54 | 45.42837 | 6.77653 | 28556 ft | 460 kts | 140° |
| 2026-05-01 14:54 | 45.40267 | 6.80377 | 28875 ft | 461 kts | 146° |
| 2026-05-01 14:54 | 45.37642 | 6.82905 | 29238 ft | 464 kts | 146° |
| 2026-05-01 14:55 | 45.34930 | 6.85535 | 29452 ft | 469 kts | 146° |
| 2026-05-01 14:55 | 45.32272 | 6.88160 | 29702 ft | 472 kts | 146° |
| 2026-05-01 14:55 | 45.29590 | 6.90841 | 30113 ft | 471 kts | 146° |
| 2026-05-01 14:55 | 45.26924 | 6.93530 | 30535 ft | 470 kts | 144° |
| 2026-05-01 14:56 | 45.24417 | 6.96512 | 30872 ft | 471 kts | 136° |
| 2026-05-01 14:56 | 45.22098 | 6.99779 | 31216 ft | 470 kts | 135° |
| 2026-05-01 14:56 | 45.19930 | 7.02879 | 31446 ft | 472 kts | 135° |
| 2026-05-01 14:56 | 45.17603 | 7.06163 | 31769 ft | 471 kts | 135° |
| 2026-05-01 14:57 | 45.15261 | 7.09412 | 32101 ft | 471 kts | 136° |
| 2026-05-01 14:57 | 45.10556 | 7.15953 | 32551 ft | 475 kts | 132° |
| 2026-05-01 14:57 | 45.08517 | 7.19617 | 32901 ft | 473 kts | 124° |
| 2026-05-01 14:58 | 45.06679 | 7.23473 | 33229 ft | 472 kts | 123° |
| 2026-05-01 14:58 | 45.04846 | 7.27335 | 33493 ft | 473 kts | 123° |
| 2026-05-01 14:58 | 45.02974 | 7.31180 | 33748 ft | 474 kts | 124° |
| 2026-05-01 14:58 | 45.01078 | 7.34995 | 34061 ft | 474 kts | 124° |
| 2026-05-01 14:59 | 44.99340 | 7.38877 | 34406 ft | 473 kts | 116° |
| 2026-05-01 14:59 | 44.98032 | 7.43122 | 34661 ft | 471 kts | 108° |
| 2026-05-01 14:59 | 44.97193 | 7.47580 | 34895 ft | 469 kts | 98° |
| 2026-05-01 14:59 | 44.96670 | 7.52126 | 35163 ft | 468 kts | 97° |
| 2026-05-01 15:00 | 44.95636 | 7.61213 | 35637 ft | 469 kts | 98° |
| 2026-05-01 15:00 | 44.95093 | 7.65745 | 35909 ft | 468 kts | 98° |
| 2026-05-01 15:00 | 44.94537 | 7.70256 | 36283 ft | 464 kts | 98° |
| 2026-05-01 15:01 | 44.93977 | 7.74736 | 36554 ft | 463 kts | 98° |
| 2026-05-01 15:01 | 44.93414 | 7.79225 | 36756 ft | 464 kts | 98° |
| 2026-05-01 15:01 | 44.92850 | 7.83717 | 36933 ft | 465 kts | 98° |
| 2026-05-01 15:01 | 44.92289 | 7.88215 | 37152 ft | 465 kts | 98° |
| 2026-05-01 15:02 | 44.91755 | 7.92721 | 37365 ft | 465 kts | 97° |
| 2026-05-01 15:02 | 44.90752 | 8.01512 | 37354 ft | 468 kts | 97° |
| 2026-05-01 15:03 | 44.89721 | 8.10524 | 37348 ft | 463 kts | 97° |
| 2026-05-01 15:03 | 44.88683 | 8.19449 | 37341 ft | 459 kts | 97° |
| 2026-05-01 15:04 | 44.87642 | 8.28299 | 37338 ft | 456 kts | 97° |
| 2026-05-01 15:04 | 44.86591 | 8.37175 | 37347 ft | 462 kts | 97° |
| 2026-05-01 15:05 | 44.85518 | 8.46161 | 37337 ft | 466 kts | 97° |
| 2026-05-01 15:05 | 44.84437 | 8.55157 | 37343 ft | 465 kts | 97° |
| 2026-05-01 15:06 | 44.83349 | 8.64137 | 37340 ft | 465 kts | 97° |
| 2026-05-01 15:06 | 44.82257 | 8.73099 | 37326 ft | 464 kts | 97° |
| 2026-05-01 15:07 | 44.81167 | 8.81978 | 37335 ft | 462 kts | 97° |
| 2026-05-01 15:07 | 44.80066 | 8.90894 | 37322 ft | 461 kts | 97° |
| 2026-05-01 15:08 | 44.78963 | 8.99764 | 37319 ft | 459 kts | 97° |
| 2026-05-01 15:08 | 44.77883 | 9.08397 | 37318 ft | 458 kts | 97° |
| 2026-05-01 15:09 | 44.76773 | 9.17209 | 37329 ft | 457 kts | 96° |
| 2026-05-01 15:09 | 44.75659 | 9.26004 | 37311 ft | 456 kts | 97° |
| 2026-05-01 15:10 | 44.74546 | 9.34721 | 37320 ft | 455 kts | 97° |
| 2026-05-01 15:10 | 44.72859 | 9.47848 | 37326 ft | 454 kts | 97° |
| 2026-05-01 15:11 | 44.71153 | 9.60987 | 37331 ft | 454 kts | 96° |
| 2026-05-01 15:12 | 44.70007 | 9.69748 | 37327 ft | 455 kts | 96° |
| 2026-05-01 15:12 | 44.68276 | 9.82884 | 37327 ft | 457 kts | 97° |
| 2026-05-01 15:14 | 44.65377 | 10.04603 | 37343 ft | 460 kts | 96° |
| 2026-05-01 15:14 | 44.63587 | 10.17847 | 37349 ft | 460 kts | 96° |
| 2026-05-01 15:15 | 44.61172 | 10.35527 | 37347 ft | 461 kts | 96° |
| 2026-05-01 15:16 | 44.58739 | 10.53136 | 37352 ft | 460 kts | 96° |
| 2026-05-01 15:18 | 44.55865 | 10.73662 | 37351 ft | 459 kts | 96° |
| 2026-05-01 15:19 | 44.53383 | 10.91177 | 37349 ft | 457 kts | 97° |
| 2026-05-01 15:19 | 44.51495 | 11.04039 | 37346 ft | 457 kts | 98° |
| 2026-05-01 15:20 | 44.49379 | 11.17063 | 37349 ft | 457 kts | 98° |
| 2026-05-01 15:21 | 44.47961 | 11.25751 | 37318 ft | 457 kts | 98° |
| 2026-05-01 15:21 | 44.46548 | 11.34433 | 37341 ft | 458 kts | 98° |
| 2026-05-01 15:22 | 44.44431 | 11.47410 | 37326 ft | 458 kts | 98° |
| 2026-05-01 15:22 | 44.43003 | 11.56105 | 37333 ft | 458 kts | 98° |
| 2026-05-01 15:23 | 44.41571 | 11.64779 | 37347 ft | 458 kts | 98° |
| 2026-05-01 15:23 | 44.40131 | 11.73451 | 37354 ft | 458 kts | 98° |
| 2026-05-01 15:24 | 44.38686 | 11.82114 | 37355 ft | 457 kts | 98° |
| 2026-05-01 15:24 | 44.37236 | 11.90762 | 37359 ft | 456 kts | 98° |
| 2026-05-01 15:25 | 44.35781 | 11.99400 | 37354 ft | 455 kts | 98° |
| 2026-05-01 15:25 | 44.34364 | 12.07770 | 37381 ft | 455 kts | 98° |
| 2026-05-01 15:26 | 44.32911 | 12.16313 | 37364 ft | 454 kts | 98° |
| 2026-05-01 15:26 | 44.31446 | 12.24880 | 37359 ft | 453 kts | 98° |
| 2026-05-01 15:27 | 44.29976 | 12.33442 | 37360 ft | 452 kts | 98° |
| 2026-05-01 15:28 | 44.27763 | 12.46247 | 37385 ft | 452 kts | 98° |
| 2026-05-01 15:28 | 44.26281 | 12.54771 | 37375 ft | 451 kts | 98° |
| 2026-05-01 15:29 | 44.24055 | 12.67497 | 37342 ft | 449 kts | 98° |
| 2026-05-01 15:30 | 44.21083 | 12.84353 | 37342 ft | 448 kts | 98° |
| 2026-05-01 15:31 | 44.16630 | 13.09319 | 37320 ft | 446 kts | 98° |
| 2026-05-01 15:32 | 44.13609 | 13.26066 | 37327 ft | 445 kts | 98° |
| 2026-05-01 15:34 | 44.09042 | 13.51095 | 37351 ft | 444 kts | 98° |